createdAt,value
2022-12-27T00:00:57.572Z,8.66
2022-12-27T00:03:30.438Z,8.61
2022-12-27T00:06:13.283Z,8.62
2022-12-27T00:08:46.689Z,8.52
2022-12-27T00:11:23.691Z,8.54
2022-12-27T00:14:02.835Z,8.47
2022-12-27T00:16:35.650Z,8.46
2022-12-27T00:19:08.303Z,8.44
2022-12-27T00:21:41.035Z,8.44
2022-12-27T00:24:13.747Z,8.41
2022-12-27T00:26:46.082Z,8.31
2022-12-27T00:29:18.363Z,8.57
2022-12-27T00:31:50.290Z,8.17
2022-12-27T00:34:23.122Z,8.06
2022-12-27T00:36:55.511Z,7.97
2022-12-27T00:39:27.938Z,7.98
2022-12-27T00:41:59.839Z,7.98
2022-12-27T00:44:32.565Z,7.97
2022-12-27T00:47:05.322Z,7.88
2022-12-27T00:49:37.661Z,7.79
2022-12-27T00:52:09.968Z,7.68
2022-12-27T00:54:42.307Z,7.51
2022-12-27T00:57:14.275Z,7.45
2022-12-27T00:59:48.214Z,7.30
2022-12-27T01:02:20.409Z,7.03
2022-12-27T01:04:55.045Z,6.87
2022-12-27T01:07:27.521Z,6.81
2022-12-27T01:10:00.273Z,6.69
2022-12-27T01:12:33.083Z,6.77
2022-12-27T01:15:06.960Z,6.75
2022-12-27T01:17:39.819Z,6.76
2022-12-27T01:20:12.193Z,6.52
2022-12-27T01:22:45.364Z,6.41
2022-12-27T01:25:17.370Z,6.33
2022-12-27T01:27:50.119Z,6.24
2022-12-27T01:30:22.483Z,6.17
2022-12-27T01:32:54.429Z,6.19
2022-12-27T01:35:27.250Z,6.13
2022-12-27T01:37:59.561Z,6.01
2022-12-27T01:40:31.917Z,5.98
2022-12-27T01:43:04.561Z,5.99
2022-12-27T01:45:37.818Z,6.00
2022-12-27T01:48:22.150Z,5.85
2022-12-27T01:51:04.289Z,5.71
2022-12-27T01:53:44.912Z,5.61
2022-12-27T01:56:31.553Z,5.71
2022-12-27T01:59:08.656Z,5.83
2022-12-27T02:01:44.524Z,5.76
2022-12-27T02:04:21.887Z,5.68
2022-12-27T02:06:53.940Z,5.61
2022-12-27T02:09:44.287Z,5.59
2022-12-27T02:12:47.645Z,5.58
2022-12-27T02:15:20.782Z,5.58
2022-12-27T02:17:53.079Z,5.47
2022-12-27T02:20:29.417Z,5.44
2022-12-27T02:23:50.547Z,5.53
2022-12-27T02:26:56.918Z,5.52
2022-12-27T02:29:49.318Z,5.42
2022-12-27T02:32:30.727Z,5.37
2022-12-27T02:35:32.511Z,5.37
2022-12-27T02:38:13.782Z,5.35
2022-12-27T02:41:05.977Z,5.42
2022-12-27T02:43:56.867Z,5.56
2022-12-27T02:46:49.712Z,5.49
2022-12-27T02:49:54.751Z,5.52
2022-12-27T02:53:05.580Z,5.55
2022-12-27T02:56:13.634Z,5.47
2022-12-27T02:59:13.533Z,5.32
2022-12-27T03:02:42.346Z,5.25
2022-12-27T03:06:14.167Z,5.09
2022-12-27T03:09:01.309Z,5.10
2022-12-27T03:12:06.147Z,5.08
2022-12-27T03:15:05.761Z,5.14
2022-12-27T03:17:51.029Z,5.13
2022-12-27T03:20:41.903Z,5.07
2022-12-27T03:23:34.245Z,5.18
2022-12-27T03:26:08.653Z,5.10
2022-12-27T03:29:01.620Z,5.00
2022-12-27T03:31:58.571Z,5.00
2022-12-27T03:34:40.398Z,4.95
2022-12-27T03:37:40.276Z,4.85
2022-12-27T03:41:12.986Z,4.72
2022-12-27T03:43:45.213Z,4.83
2022-12-27T03:46:34.180Z,4.92
2022-12-27T03:49:36.822Z,4.91
2022-12-27T03:52:22.580Z,5.07
2022-12-27T03:54:56.354Z,5.13
2022-12-27T03:57:31.369Z,5.28
2022-12-27T04:00:05.685Z,5.32
2022-12-27T04:02:45.693Z,5.39
2022-12-27T04:05:17.764Z,5.42
2022-12-27T04:08:09.199Z,5.31
2022-12-27T04:11:00.758Z,5.34
2022-12-27T04:13:51.071Z,5.29
2022-12-27T04:16:42.232Z,5.34
2022-12-27T04:19:33.175Z,5.45
2022-12-27T04:22:24.395Z,5.39
2022-12-27T04:25:14.990Z,5.45
2022-12-27T04:28:06.500Z,5.49
2022-12-27T04:30:56.872Z,5.53
2022-12-27T04:33:48.019Z,5.55
2022-12-27T04:36:20.762Z,7.06
2022-12-27T04:38:52.631Z,6.10
2022-12-27T04:42:00.877Z,5.55
2022-12-27T04:44:44.873Z,5.41
2022-12-27T04:47:40.226Z,5.47
2022-12-27T04:50:50.888Z,5.44
2022-12-27T04:53:42.117Z,5.36
2022-12-27T04:56:14.793Z,5.29
2022-12-27T04:59:05.131Z,5.24
2022-12-27T05:01:56.518Z,5.17
2022-12-27T05:04:29.138Z,5.12
2022-12-27T05:07:24.524Z,4.97
2022-12-27T05:10:16.921Z,4.88
2022-12-27T05:13:08.005Z,4.85
2022-12-27T05:15:40.550Z,4.76
2022-12-27T05:18:13.268Z,4.71
2022-12-27T05:20:45.607Z,4.75
2022-12-27T05:23:36.234Z,4.71
2022-12-27T05:26:08.514Z,4.71
2022-12-27T05:28:40.396Z,4.70
2022-12-27T05:31:13.545Z,4.74
2022-12-27T05:33:45.867Z,4.76
2022-12-27T05:36:19.740Z,4.57
2022-12-27T05:38:52.540Z,4.65
2022-12-27T05:41:24.735Z,4.57
2022-12-27T05:44:04.795Z,4.47
2022-12-27T05:46:39.827Z,4.44
2022-12-27T05:49:12.106Z,4.43
2022-12-27T05:51:44.183Z,4.49
2022-12-27T05:54:17.022Z,4.55
2022-12-27T05:56:48.895Z,4.56
2022-12-27T05:59:21.884Z,4.57
2022-12-27T06:01:54.300Z,4.60
2022-12-27T06:04:28.077Z,4.52
2022-12-27T06:07:00.550Z,4.48
2022-12-27T06:09:34.203Z,4.50
2022-12-27T06:12:06.535Z,4.49
2022-12-27T06:14:39.421Z,4.41
2022-12-27T06:17:11.769Z,4.39
2022-12-27T06:19:43.696Z,4.31
2022-12-27T06:22:16.407Z,4.34
2022-12-27T06:24:48.375Z,4.32
2022-12-27T06:27:21.541Z,4.28
2022-12-27T06:29:54.533Z,4.31
2022-12-27T06:32:26.394Z,4.29
2022-12-27T06:34:59.461Z,4.28
2022-12-27T06:37:32.530Z,4.32
2022-12-27T06:40:05.211Z,4.35
2022-12-27T06:42:37.571Z,4.29
2022-12-27T06:45:10.123Z,4.25
2022-12-27T06:47:43.339Z,4.27
2022-12-27T06:50:15.236Z,4.24
2022-12-27T06:52:48.480Z,4.26
2022-12-27T06:55:23.378Z,4.24
2022-12-27T06:57:56.569Z,4.20
2022-12-27T07:00:28.712Z,4.16
2022-12-27T07:03:03.767Z,4.21
2022-12-27T07:05:36.582Z,4.11
2022-12-27T07:08:09.707Z,4.10
2022-12-27T07:10:41.652Z,4.12
2022-12-27T07:13:14.382Z,4.09
2022-12-27T07:15:47.522Z,4.15
2022-12-27T07:18:20.412Z,4.16
2022-12-27T07:20:52.287Z,4.29
2022-12-27T07:23:25.098Z,4.35
2022-12-27T07:26:13.057Z,4.39
2022-12-27T07:28:45.898Z,4.51
2022-12-27T07:31:26.577Z,4.63
2022-12-27T07:34:02.356Z,4.69
2022-12-27T07:36:38.550Z,4.67
2022-12-27T07:39:11.904Z,4.58
2022-12-27T07:41:43.832Z,4.62
2022-12-27T07:44:18.736Z,4.63
2022-12-27T07:46:51.199Z,4.70
2022-12-27T07:49:23.959Z,4.70
2022-12-27T07:51:55.856Z,4.51
2022-12-27T07:54:29.009Z,4.61
2022-12-27T07:57:00.894Z,4.61
2022-12-27T07:59:34.181Z,4.52
2022-12-27T08:02:07.351Z,4.42
2022-12-27T08:04:41.437Z,4.51
2022-12-27T08:07:16.622Z,4.41
2022-12-27T08:09:49.824Z,4.45
2022-12-27T08:12:22.200Z,4.44
2022-12-27T08:14:55.417Z,4.42
2022-12-27T08:17:28.952Z,4.53
2022-12-27T08:20:00.819Z,4.40
2022-12-27T08:22:33.595Z,4.38
2022-12-27T08:25:06.432Z,4.40
2022-12-27T08:27:39.558Z,4.37
2022-12-27T08:30:12.196Z,4.40
2022-12-27T08:32:47.958Z,4.46
2022-12-27T08:35:51.087Z,4.57
2022-12-27T08:38:13.446Z,4.78
2022-12-27T08:40:45.939Z,4.98
2022-12-27T08:46:19.497Z,7.35
2022-12-27T08:48:52.586Z,6.02
2022-12-27T08:51:34.307Z,5.52
2022-12-27T08:54:11.406Z,5.47
2022-12-27T08:56:43.753Z,5.29
2022-12-27T08:59:16.987Z,5.35
2022-12-27T09:01:48.932Z,5.39
2022-12-27T09:04:22.460Z,5.42
2022-12-27T09:06:54.585Z,5.22
2022-12-27T09:09:27.338Z,5.22
2022-12-27T09:12:02.867Z,5.35
2022-12-27T09:14:38.442Z,5.67
2022-12-27T09:22:01.347Z,6.85
2022-12-27T09:24:33.926Z,7.58
2022-12-27T09:27:06.615Z,7.98
2022-12-27T09:29:41.768Z,8.31
2022-12-27T09:32:19.478Z,8.18
2022-12-27T09:34:51.822Z,7.90
2022-12-27T09:37:24.556Z,7.63
2022-12-27T09:39:57.668Z,7.61
2022-12-27T09:43:19.141Z,7.67
2022-12-27T09:45:56.958Z,7.89
2022-12-27T09:48:39.175Z,8.07
2022-12-27T09:51:55.642Z,8.51
2022-12-27T09:54:38.279Z,8.14
2022-12-27T09:57:29.240Z,8.09
2022-12-27T10:00:07.469Z,8.28
2022-12-27T10:02:39.447Z,8.47
2022-12-27T10:05:23.478Z,8.52
2022-12-27T10:08:29.578Z,8.63
2022-12-27T10:11:43.320Z,8.76
2022-12-27T10:14:59.773Z,9.31
2022-12-27T10:17:55.028Z,10.05
2022-12-27T10:20:51.855Z,11.73
2022-12-27T10:23:30.719Z,11.99
2022-12-27T10:26:17.934Z,12.36
2022-12-27T10:29:14.668Z,12.30
2022-12-27T10:31:47.543Z,12.81
2022-12-27T10:34:27.304Z,13.68
2022-12-27T10:36:59.593Z,12.84
2022-12-27T10:43:24.532Z,14.26
2022-12-27T10:46:16.915Z,13.62
2022-12-27T10:49:26.170Z,13.43
2022-12-27T10:52:20.798Z,13.04
2022-12-27T10:54:57.768Z,13.62
2022-12-27T10:57:34.871Z,13.73
2022-12-27T11:00:22.328Z,13.03
2022-12-27T11:03:03.505Z,13.01
2022-12-27T11:05:41.722Z,13.17
2022-12-27T11:08:21.245Z,13.79
2022-12-27T11:11:17.213Z,12.29
2022-12-27T11:13:51.540Z,13.38
2022-12-27T11:16:32.181Z,14.08
2022-12-27T11:19:05.176Z,14.05
2022-12-27T11:21:39.863Z,12.45
2022-12-27T11:24:17.203Z,12.23
2022-12-27T11:26:58.099Z,12.17
2022-12-27T11:29:33.058Z,12.92
2022-12-27T11:32:08.082Z,13.33
2022-12-27T11:34:47.125Z,14.43
2022-12-27T11:37:24.143Z,12.77
2022-12-27T11:40:22.318Z,13.57
2022-12-27T11:43:08.958Z,13.33
2022-12-27T11:45:49.371Z,13.23
2022-12-27T11:48:41.900Z,13.61
2022-12-27T11:51:46.946Z,13.83
2022-12-27T11:54:38.121Z,14.12
2022-12-27T11:57:19.310Z,14.80
2022-12-27T12:00:12.500Z,14.43
2022-12-27T12:03:22.756Z,14.99
2022-12-27T12:06:34.597Z,14.42
2022-12-27T12:09:49.012Z,13.92
2022-12-27T12:12:33.975Z,13.69
2022-12-27T12:15:45.638Z,13.99
2022-12-27T12:18:43.433Z,13.74
2022-12-27T12:21:44.792Z,14.08
2022-12-27T12:24:43.495Z,14.26
2022-12-27T12:27:36.296Z,14.23
2022-12-27T12:30:25.362Z,13.61
2022-12-27T12:33:12.614Z,12.23
2022-12-27T12:36:12.997Z,11.50
2022-12-27T12:39:20.535Z,11.41
2022-12-27T12:42:17.328Z,10.96
2022-12-27T12:45:21.569Z,10.92
2022-12-27T12:48:26.868Z,10.92
2022-12-27T12:51:19.944Z,10.80
2022-12-27T12:54:38.200Z,10.76
2022-12-27T12:57:46.239Z,10.69
2022-12-27T13:00:40.173Z,10.67
2022-12-27T13:03:36.908Z,10.51
2022-12-27T13:06:33.747Z,10.59
2022-12-27T13:09:36.001Z,10.72
2022-12-27T13:12:46.206Z,10.39
2022-12-27T13:15:48.411Z,10.53
2022-12-27T13:18:38.917Z,10.36
2022-12-27T13:21:17.237Z,10.40
2022-12-27T13:24:10.280Z,10.51
2022-12-27T13:27:01.148Z,10.36
2022-12-27T13:29:51.788Z,10.63
2022-12-27T13:32:46.444Z,10.65
2022-12-27T13:35:50.247Z,10.48
2022-12-27T13:38:37.818Z,10.48
2022-12-27T13:41:33.176Z,10.25
2022-12-27T13:44:05.545Z,10.23
2022-12-27T13:46:44.251Z,10.22
2022-12-27T13:49:58.831Z,10.18
2022-12-27T13:52:40.565Z,10.20
2022-12-27T13:55:13.587Z,10.10
2022-12-27T13:57:52.199Z,10.09
2022-12-27T14:00:24.872Z,10.08
2022-12-27T14:03:31.101Z,9.96
2022-12-27T14:06:46.153Z,9.96
2022-12-27T14:09:38.615Z,9.83
2022-12-27T14:12:58.437Z,9.63
2022-12-27T14:16:22.212Z,9.77
2022-12-27T14:19:28.960Z,9.72
2022-12-27T14:22:26.042Z,9.67
2022-12-27T14:25:41.104Z,9.62
2022-12-27T14:28:47.405Z,9.65
2022-12-27T14:31:48.865Z,9.64
2022-12-27T14:34:45.691Z,9.69
2022-12-27T14:37:55.769Z,9.49
2022-12-27T14:41:10.687Z,9.40
2022-12-27T14:44:16.997Z,9.43
2022-12-27T14:47:23.342Z,9.32
2022-12-27T14:50:36.344Z,9.23
2022-12-27T14:53:45.777Z,9.11
2022-12-27T14:56:37.019Z,9.12
2022-12-27T14:59:28.501Z,9.15
2022-12-27T15:02:05.749Z,9.03
2022-12-27T15:04:57.940Z,8.95
2022-12-27T15:07:56.620Z,9.05
2022-12-27T15:10:55.717Z,9.04
2022-12-27T15:14:24.184Z,8.96
2022-12-27T15:17:40.666Z,8.91
2022-12-27T15:20:53.302Z,8.76
2022-12-27T15:23:55.498Z,8.65
2022-12-27T15:26:51.907Z,8.57
2022-12-27T15:30:11.107Z,8.46
2022-12-27T15:33:07.174Z,8.38
2022-12-27T15:36:10.269Z,8.18
2022-12-27T15:38:55.199Z,8.07
2022-12-27T15:41:56.261Z,7.88
2022-12-27T15:44:35.835Z,7.75
2022-12-27T15:47:52.432Z,7.51
2022-12-27T15:50:31.771Z,7.53
2022-12-27T15:53:56.634Z,7.42
2022-12-27T15:56:55.805Z,7.32
2022-12-27T15:59:56.174Z,7.22
2022-12-27T16:02:45.270Z,7.09
2022-12-27T16:05:23.719Z,7.11
2022-12-27T16:07:58.992Z,6.96
2022-12-27T16:10:31.464Z,6.92
2022-12-27T16:13:11.441Z,6.75
2022-12-27T16:15:44.613Z,6.83
2022-12-27T16:18:17.540Z,6.75
2022-12-27T16:21:01.809Z,6.71
2022-12-27T16:23:38.211Z,6.59
2022-12-27T16:26:36.253Z,6.73
2022-12-27T16:29:15.315Z,6.59
2022-12-27T16:31:52.099Z,6.56
2022-12-27T16:34:29.745Z,6.42
2022-12-27T16:37:03.304Z,6.35
2022-12-27T16:40:10.699Z,6.30
2022-12-27T16:42:57.529Z,6.20
2022-12-27T16:45:58.796Z,6.03
2022-12-27T16:48:44.822Z,5.98
2022-12-27T16:51:27.948Z,5.93
2022-12-27T16:54:57.262Z,5.95
2022-12-27T16:57:43.261Z,5.86
2022-12-27T17:00:38.617Z,5.81
2022-12-27T17:03:38.843Z,5.66
2022-12-27T17:06:35.909Z,5.76
2022-12-27T17:09:44.236Z,5.81
2022-12-27T17:12:19.666Z,5.77
2022-12-27T17:15:00.809Z,5.76
2022-12-27T17:17:34.301Z,5.67
2022-12-27T17:20:14.385Z,5.48
2022-12-27T17:22:47.247Z,5.35
2022-12-27T17:25:28.090Z,5.35
2022-12-27T17:28:15.220Z,5.36
2022-12-27T17:31:26.373Z,5.42
2022-12-27T17:34:36.914Z,5.36
2022-12-27T17:37:22.196Z,5.35
2022-12-27T17:40:36.607Z,5.36
2022-12-27T17:44:00.145Z,5.28
2022-12-27T17:46:56.189Z,5.25
2022-12-27T17:49:31.763Z,5.27
2022-12-27T17:52:23.291Z,5.38
2022-12-27T17:55:32.038Z,5.39
2022-12-27T17:58:08.778Z,5.34
2022-12-27T18:00:55.005Z,5.30
2022-12-27T18:03:36.510Z,5.24
2022-12-27T18:06:09.029Z,5.02
2022-12-27T18:08:41.765Z,4.93
2022-12-27T18:11:15.568Z,4.89
2022-12-27T18:13:54.354Z,4.88
2022-12-27T18:16:39.748Z,4.77
2022-12-27T18:19:20.249Z,4.77
2022-12-27T18:22:01.336Z,4.74
2022-12-27T18:24:34.283Z,4.65
2022-12-27T18:27:17.507Z,4.68
2022-12-27T18:29:50.631Z,4.67
2022-12-27T18:32:24.515Z,4.57
2022-12-27T18:35:00.867Z,4.61
2022-12-27T18:37:36.301Z,4.57
2022-12-27T18:40:21.541Z,4.47
2022-12-27T18:42:54.488Z,4.42
2022-12-27T18:45:34.351Z,4.34
2022-12-27T18:48:12.509Z,4.34
2022-12-27T18:50:52.086Z,4.35
2022-12-27T18:53:35.978Z,4.27
2022-12-27T18:56:33.013Z,4.28
2022-12-27T18:59:13.687Z,4.23
2022-12-27T19:01:48.216Z,4.25
2022-12-27T19:04:41.387Z,4.30
2022-12-27T19:07:15.451Z,4.30
2022-12-27T19:10:00.692Z,4.29
2022-12-27T19:12:37.240Z,4.32
2022-12-27T19:15:38.757Z,4.28
2022-12-27T19:18:25.774Z,4.15
2022-12-27T19:21:01.560Z,4.13
2022-12-27T19:23:49.693Z,4.06
2022-12-27T19:26:31.445Z,4.03
2022-12-27T19:29:17.391Z,4.09
2022-12-27T19:32:09.611Z,4.01
2022-12-27T19:34:52.062Z,4.05
2022-12-27T19:37:29.867Z,4.05
2022-12-27T19:40:02.603Z,4.00
2022-12-27T19:42:34.918Z,3.97
2022-12-27T19:45:10.081Z,3.99
2022-12-27T19:47:42.824Z,3.89
2022-12-27T19:50:15.126Z,3.94
2022-12-27T19:52:50.880Z,3.88
2022-12-27T19:55:25.849Z,3.70
2022-12-27T19:57:58.732Z,3.64
2022-12-27T20:00:30.680Z,3.64
2022-12-27T20:03:04.853Z,3.58
2022-12-27T20:06:14.815Z,4.06
2022-12-27T20:08:41.107Z,3.75
2022-12-27T20:11:22.405Z,3.65
2022-12-27T20:13:55.202Z,3.49
2022-12-27T20:16:27.156Z,3.46
2022-12-27T20:18:59.897Z,3.48
2022-12-27T20:21:32.228Z,3.41
2022-12-27T20:24:05.079Z,3.37
2022-12-27T20:26:41.181Z,3.27
2022-12-27T20:29:15.445Z,3.35
2022-12-27T20:31:49.699Z,3.27
2022-12-27T20:34:22.067Z,3.28
2022-12-27T20:36:55.396Z,3.17
2022-12-27T20:39:30.532Z,3.26
2022-12-27T20:42:03.781Z,3.31
2022-12-27T20:44:35.695Z,3.19
2022-12-27T20:47:08.834Z,3.23
2022-12-27T20:49:42.283Z,3.19
2022-12-27T20:52:15.033Z,3.21
2022-12-27T20:54:47.349Z,3.15
2022-12-27T20:57:20.145Z,3.03
2022-12-27T20:59:52.142Z,3.06
2022-12-27T21:02:25.367Z,3.06
2022-12-27T21:04:57.742Z,3.21
2022-12-27T21:07:30.902Z,3.13
2022-12-27T21:10:05.987Z,3.07
2022-12-27T21:12:38.539Z,3.05
2022-12-27T21:15:11.920Z,3.13
2022-12-27T21:17:44.247Z,3.08
2022-12-27T21:20:16.104Z,3.08
2022-12-27T21:22:48.833Z,3.18
2022-12-27T21:25:21.134Z,3.19
2022-12-27T21:27:53.048Z,3.09
2022-12-27T21:30:25.731Z,3.06
2022-12-27T21:32:57.609Z,3.09
2022-12-27T21:35:31.008Z,2.99
2022-12-27T21:38:02.934Z,3.02
2022-12-27T21:40:35.850Z,3.09
2022-12-27T21:43:27.956Z,3.08
2022-12-27T21:46:30.660Z,3.28
2022-12-27T21:49:12.355Z,3.30
2022-12-27T21:51:45.274Z,3.28
2022-12-27T21:54:17.595Z,3.35
2022-12-27T21:56:51.075Z,3.25
2022-12-27T21:59:22.995Z,3.35
2022-12-27T22:01:56.231Z,3.26
2022-12-27T22:04:28.183Z,3.28
2022-12-27T22:07:00.909Z,3.21
2022-12-27T22:09:33.218Z,3.17
2022-12-27T22:12:06.231Z,3.17
2022-12-27T22:14:38.548Z,3.17
2022-12-27T22:17:11.741Z,3.22
2022-12-27T22:19:43.582Z,3.16
2022-12-27T22:22:16.417Z,3.13
2022-12-27T22:24:48.279Z,2.96
2022-12-27T22:27:21.013Z,2.95
2022-12-27T22:29:52.939Z,2.88
2022-12-27T22:32:25.758Z,2.95
2022-12-27T22:34:57.618Z,2.95
2022-12-27T22:37:30.749Z,2.95
2022-12-27T22:40:03.150Z,3.00
2022-12-27T22:42:35.595Z,3.03
2022-12-27T22:45:08.879Z,3.05
2022-12-27T22:47:40.815Z,3.07
2022-12-27T22:50:14.055Z,2.98
2022-12-27T22:52:47.692Z,2.98
2022-12-27T22:55:19.579Z,2.94
2022-12-27T22:57:52.778Z,3.00
2022-12-27T23:00:25.064Z,2.94
2022-12-27T23:02:57.766Z,2.93
2022-12-27T23:05:30.797Z,2.94
2022-12-27T23:08:07.026Z,3.11
2022-12-27T23:10:39.102Z,3.14
2022-12-27T23:13:11.829Z,3.10
2022-12-27T23:15:43.738Z,3.17
2022-12-27T23:18:16.536Z,3.11
2022-12-27T23:21:19.191Z,3.09
2022-12-27T23:23:41.915Z,3.00
2022-12-27T23:26:21.315Z,2.96
2022-12-27T23:28:54.298Z,3.05
2022-12-27T23:31:27.983Z,3.14
2022-12-27T23:34:00.657Z,3.23
2022-12-27T23:36:34.388Z,3.23
2022-12-27T23:39:06.251Z,3.39
2022-12-27T23:41:39.006Z,3.39
2022-12-27T23:44:11.288Z,3.31
2022-12-27T23:46:44.089Z,3.28
2022-12-27T23:49:17.888Z,3.24
2022-12-27T23:51:51.501Z,3.20
2022-12-27T23:54:24.322Z,3.27
2022-12-27T23:56:56.370Z,3.22
2022-12-27T23:59:29.116Z,3.31
